createdAt,value
2023-03-10T00:00:11.154Z,12.62
2023-03-10T00:01:11.164Z,12.63
2023-03-10T00:02:11.131Z,12.62
2023-03-10T00:03:11.143Z,12.62
2023-03-10T00:04:11.142Z,12.62
2023-03-10T00:05:11.112Z,12.62
2023-03-10T00:06:11.232Z,12.62
2023-03-10T00:07:11.099Z,12.61
2023-03-10T00:08:11.067Z,12.61
2023-03-10T00:09:11.069Z,12.59
2023-03-10T00:10:11.063Z,12.59
2023-03-10T00:11:11.058Z,12.56
2023-03-10T00:12:11.044Z,12.56
2023-03-10T00:13:11.035Z,12.55
2023-03-10T00:14:11.003Z,12.56
2023-03-10T00:15:11.004Z,12.55
2023-03-10T00:16:11.108Z,12.54
2023-03-10T00:17:11.008Z,12.54
2023-03-10T00:18:10.956Z,12.51
2023-03-10T00:19:10.986Z,12.51
2023-03-10T00:20:10.966Z,12.49
2023-03-10T00:21:10.946Z,12.49
2023-03-10T00:22:10.951Z,12.48
2023-03-10T00:23:10.906Z,12.46
2023-03-10T00:24:10.918Z,12.46
2023-03-10T00:25:10.926Z,12.46
2023-03-10T00:26:10.890Z,12.43
2023-03-10T00:27:10.868Z,12.43
2023-03-10T00:28:10.865Z,12.40
2023-03-10T00:29:10.879Z,12.40
2023-03-10T00:30:10.851Z,12.40
2023-03-10T00:31:10.880Z,12.38
2023-03-10T00:32:10.857Z,12.37
2023-03-10T00:33:10.830Z,12.38
2023-03-10T00:34:10.793Z,12.36
2023-03-10T00:35:10.803Z,12.36
2023-03-10T00:36:10.803Z,12.34
2023-03-10T00:37:10.789Z,12.36
2023-03-10T00:38:10.784Z,12.33
2023-03-10T00:39:11.854Z,12.33
2023-03-10T00:40:10.750Z,12.33
2023-03-10T00:41:10.725Z,12.31
2023-03-10T00:42:10.717Z,12.31
2023-03-10T00:43:10.716Z,12.31
2023-03-10T00:44:10.702Z,12.30
2023-03-10T00:45:10.704Z,12.29
2023-03-10T00:46:10.703Z,12.30
2023-03-10T00:47:10.685Z,12.30
2023-03-10T00:48:10.647Z,12.29
2023-03-10T00:49:10.648Z,12.30
2023-03-10T00:50:10.638Z,12.29
2023-03-10T00:51:10.623Z,12.29
2023-03-10T00:52:10.612Z,12.26
2023-03-10T00:53:10.599Z,12.29
2023-03-10T00:54:10.613Z,12.26
2023-03-10T00:55:10.582Z,12.25
2023-03-10T00:56:10.569Z,12.23
2023-03-10T00:57:10.572Z,12.22
2023-03-10T00:58:10.540Z,12.22
2023-03-10T00:59:10.541Z,12.22
2023-03-10T01:00:10.541Z,12.19
2023-03-10T01:01:10.550Z,12.21
2023-03-10T01:02:10.511Z,12.18
2023-03-10T01:03:10.502Z,12.18
2023-03-10T01:04:10.507Z,12.18
2023-03-10T01:05:10.472Z,12.16
2023-03-10T01:06:10.452Z,12.16
2023-03-10T01:07:10.463Z,12.16
2023-03-10T01:08:10.442Z,12.15
2023-03-10T01:09:10.454Z,12.13
2023-03-10T01:10:10.445Z,12.15
2023-03-10T01:11:10.424Z,12.13
2023-03-10T01:12:10.424Z,12.15
2023-03-10T01:13:10.403Z,12.13
2023-03-10T01:14:10.371Z,12.12
2023-03-10T01:15:10.409Z,12.13
2023-03-10T01:16:10.395Z,12.12
2023-03-10T01:17:10.364Z,12.13
2023-03-10T01:18:10.334Z,12.13
2023-03-10T01:19:10.328Z,12.12
2023-03-10T01:20:10.323Z,12.12
2023-03-10T01:21:10.322Z,12.12
2023-03-10T01:22:10.303Z,12.11
2023-03-10T01:23:10.304Z,12.12
2023-03-10T01:24:10.263Z,12.11
2023-03-10T01:25:10.277Z,12.11
2023-03-10T01:26:10.245Z,12.11
2023-03-10T01:27:10.260Z,12.11
2023-03-10T01:28:10.255Z,12.08
2023-03-10T01:29:10.225Z,12.08
2023-03-10T01:30:10.203Z,12.08
2023-03-10T01:31:10.235Z,12.08
2023-03-10T01:32:10.205Z,12.07
2023-03-10T01:33:10.198Z,12.07
2023-03-10T01:34:10.165Z,12.07
2023-03-10T01:35:10.148Z,12.05
2023-03-10T01:36:10.173Z,12.05
2023-03-10T01:37:10.146Z,12.07
2023-03-10T01:38:10.130Z,12.05
2023-03-10T01:39:10.133Z,12.07
2023-03-10T01:40:10.113Z,12.04
2023-03-10T01:41:10.117Z,12.05
2023-03-10T01:42:10.082Z,12.05
2023-03-10T01:43:10.077Z,12.07
2023-03-10T01:44:10.044Z,12.07
2023-03-10T01:45:10.046Z,12.11
2023-03-10T01:46:10.078Z,12.11
2023-03-10T01:47:10.025Z,12.12
2023-03-10T01:48:10.023Z,12.11
2023-03-10T01:49:10.020Z,12.12
2023-03-10T01:50:09.996Z,12.12
2023-03-10T01:51:10.002Z,12.12
2023-03-10T01:52:09.961Z,12.12
2023-03-10T01:53:09.957Z,12.11
2023-03-10T01:54:09.945Z,12.11
2023-03-10T01:55:09.958Z,12.08
2023-03-10T01:56:09.920Z,12.08
2023-03-10T01:57:09.913Z,12.08
2023-03-10T01:58:09.905Z,12.07
2023-03-10T01:59:09.895Z,12.07
2023-03-10T02:00:09.907Z,12.05
2023-03-10T02:01:09.923Z,12.04
2023-03-10T02:02:09.874Z,12.05
2023-03-10T02:03:09.856Z,12.04
2023-03-10T02:04:09.862Z,12.03
2023-03-10T02:05:09.847Z,12.01
2023-03-10T02:06:09.831Z,12.00
2023-03-10T02:07:09.848Z,12.01
2023-03-10T02:08:09.809Z,12.03
2023-03-10T02:09:09.804Z,12.04
2023-03-10T02:10:09.781Z,12.03
2023-03-10T02:11:09.774Z,12.04
2023-03-10T02:12:09.777Z,12.05
2023-03-10T02:13:09.750Z,12.04
2023-03-10T02:14:09.741Z,12.04
2023-03-10T02:15:09.747Z,12.05
2023-03-10T02:16:09.779Z,12.05
2023-03-10T02:17:09.714Z,12.05
2023-03-10T02:18:09.802Z,12.07
2023-03-10T02:19:09.726Z,12.07
2023-03-10T02:20:09.661Z,12.07
2023-03-10T02:21:09.675Z,12.08
2023-03-10T02:22:09.680Z,12.08
2023-03-10T02:23:09.652Z,12.11
2023-03-10T02:24:09.653Z,12.08
2023-03-10T02:25:09.641Z,12.11
2023-03-10T02:26:09.622Z,12.08
2023-03-10T02:27:09.628Z,12.11
2023-03-10T02:28:09.600Z,12.08
2023-03-10T02:29:09.574Z,12.11
2023-03-10T02:30:09.578Z,12.11
2023-03-10T02:31:09.611Z,12.11
2023-03-10T02:32:09.601Z,12.11
2023-03-10T02:33:09.570Z,12.11
2023-03-10T02:34:09.543Z,12.08
2023-03-10T02:35:09.537Z,12.07
2023-03-10T02:36:09.589Z,12.07
2023-03-10T02:37:09.486Z,12.07
2023-03-10T02:38:09.521Z,12.05
2023-03-10T02:39:09.468Z,12.04
2023-03-10T02:40:09.467Z,12.05
2023-03-10T02:41:09.446Z,12.04
2023-03-10T02:42:09.452Z,12.01
2023-03-10T02:43:09.447Z,12.03
2023-03-10T02:44:09.428Z,12.01
2023-03-10T02:45:09.417Z,12.00
2023-03-10T02:46:09.448Z,11.98
2023-03-10T02:47:09.409Z,11.98
2023-03-10T02:48:09.400Z,11.97
2023-03-10T02:49:09.369Z,11.96
2023-03-10T02:50:09.355Z,11.96
2023-03-10T02:51:09.392Z,11.96
2023-03-10T02:52:09.344Z,11.93
2023-03-10T02:53:09.355Z,11.90
2023-03-10T02:54:09.365Z,11.88
2023-03-10T02:55:09.334Z,11.88
2023-03-10T02:56:09.324Z,11.87
2023-03-10T02:57:09.296Z,11.87
2023-03-10T02:58:09.285Z,11.85
2023-03-10T02:59:09.305Z,11.85
2023-03-10T03:00:09.295Z,11.84
2023-03-10T03:01:09.283Z,11.82
2023-03-10T03:02:09.236Z,11.82
2023-03-10T03:03:09.261Z,11.81
2023-03-10T03:04:09.323Z,11.81
2023-03-10T03:05:09.228Z,11.81
2023-03-10T03:06:09.203Z,11.81
2023-03-10T03:07:09.220Z,11.79
2023-03-10T03:08:09.196Z,11.78
2023-03-10T03:09:09.175Z,11.78
2023-03-10T03:10:09.177Z,11.78
2023-03-10T03:11:09.136Z,11.78
2023-03-10T03:12:09.178Z,11.75
2023-03-10T03:13:09.136Z,11.74
2023-03-10T03:14:09.122Z,11.74
2023-03-10T03:15:09.122Z,11.74
2023-03-10T03:16:09.123Z,11.72
2023-03-10T03:17:09.108Z,11.70
2023-03-10T03:18:09.080Z,11.67
2023-03-10T03:19:09.058Z,11.67
2023-03-10T03:20:09.058Z,11.69
2023-03-10T03:21:09.058Z,11.67
2023-03-10T03:22:09.066Z,11.67
2023-03-10T03:23:09.035Z,11.64
2023-03-10T03:24:08.998Z,11.66
2023-03-10T03:25:09.011Z,11.64
2023-03-10T03:26:08.977Z,11.63
2023-03-10T03:27:08.990Z,11.62
2023-03-10T03:28:08.958Z,11.62
2023-03-10T03:29:08.959Z,11.60
2023-03-10T03:30:08.948Z,11.60
2023-03-10T03:31:08.984Z,11.57
2023-03-10T03:32:08.997Z,11.56
2023-03-10T03:33:08.908Z,11.54
2023-03-10T03:34:08.888Z,11.53
2023-03-10T03:35:08.887Z,11.49
2023-03-10T03:36:09.007Z,11.49
2023-03-10T03:37:08.880Z,11.48
2023-03-10T03:38:08.847Z,11.49
2023-03-10T03:39:08.838Z,11.46
2023-03-10T03:40:08.818Z,11.46
2023-03-10T03:41:08.836Z,11.44
2023-03-10T03:42:08.820Z,11.44
2023-03-10T03:43:08.809Z,11.42
2023-03-10T03:44:08.789Z,11.41
2023-03-10T03:45:08.790Z,11.41
2023-03-10T03:46:08.812Z,11.38
2023-03-10T03:47:08.786Z,11.36
2023-03-10T03:48:08.750Z,11.35
2023-03-10T03:49:08.731Z,11.33
2023-03-10T03:50:08.827Z,11.35
2023-03-10T03:51:08.729Z,11.31
2023-03-10T03:52:08.734Z,11.30
2023-03-10T03:53:08.698Z,11.28
2023-03-10T03:54:08.693Z,11.26
2023-03-10T03:55:08.682Z,11.26
2023-03-10T03:56:08.663Z,11.23
2023-03-10T03:57:08.651Z,11.21
2023-03-10T03:58:08.652Z,11.21
2023-03-10T03:59:08.654Z,11.20
2023-03-10T04:00:09.563Z,11.20
2023-03-10T04:01:08.632Z,11.20
2023-03-10T04:02:08.638Z,11.19
2023-03-10T04:03:08.656Z,11.17
2023-03-10T04:04:08.601Z,11.19
2023-03-10T04:05:08.586Z,11.17
2023-03-10T04:06:08.565Z,11.16
2023-03-10T04:07:08.543Z,11.13
2023-03-10T04:08:08.526Z,11.12
2023-03-10T04:09:08.536Z,11.11
2023-03-10T04:10:08.535Z,11.11
2023-03-10T04:11:08.505Z,11.11
2023-03-10T04:12:08.530Z,11.09
2023-03-10T04:13:08.498Z,11.11
2023-03-10T04:14:08.466Z,11.09
2023-03-10T04:15:08.489Z,11.08
2023-03-10T04:16:08.547Z,11.09
2023-03-10T04:17:10.697Z,11.08
2023-03-10T04:18:08.416Z,11.08
2023-03-10T04:19:08.456Z,11.08
2023-03-10T04:20:08.726Z,11.08
2023-03-10T04:21:08.396Z,11.06
2023-03-10T04:22:08.395Z,11.06
2023-03-10T04:23:08.389Z,11.06
2023-03-10T04:24:08.369Z,11.06
2023-03-10T04:25:08.371Z,11.05
2023-03-10T04:26:08.361Z,11.06
2023-03-10T04:27:08.357Z,11.05
2023-03-10T04:28:08.340Z,11.05
2023-03-10T04:29:08.310Z,11.05
2023-03-10T04:30:08.310Z,11.03
2023-03-10T04:31:08.299Z,11.03
2023-03-10T04:32:08.273Z,11.02
2023-03-10T04:33:08.281Z,11.03
2023-03-10T04:34:08.255Z,11.02
2023-03-10T04:35:08.273Z,11.02
2023-03-10T04:36:08.271Z,11.01
2023-03-10T04:37:08.243Z,11.02
2023-03-10T04:38:08.232Z,11.01
2023-03-10T04:39:08.233Z,11.02
2023-03-10T04:40:08.224Z,11.01
2023-03-10T04:41:08.183Z,10.99
2023-03-10T04:42:08.164Z,10.98
2023-03-10T04:43:08.216Z,10.99
2023-03-10T04:44:12.786Z,10.99
2023-03-10T04:45:09.167Z,11.01
2023-03-10T04:46:08.154Z,11.02
2023-03-10T04:47:08.137Z,11.01
2023-03-10T04:48:08.105Z,11.03
2023-03-10T04:49:08.121Z,11.02
2023-03-10T04:50:08.097Z,11.05
2023-03-10T04:51:08.086Z,11.06
2023-03-10T04:52:08.074Z,11.06
2023-03-10T04:53:08.059Z,11.06
2023-03-10T04:54:08.067Z,11.06
2023-03-10T04:55:08.036Z,11.08
2023-03-10T04:56:08.050Z,11.09
2023-03-10T04:57:08.029Z,11.09
2023-03-10T04:58:08.028Z,11.11
2023-03-10T04:59:07.990Z,11.11
2023-03-10T05:00:08.198Z,11.11
2023-03-10T05:01:08.096Z,11.12
2023-03-10T05:02:08.066Z,11.11
2023-03-10T05:03:07.976Z,11.13
2023-03-10T05:04:08.019Z,11.12
2023-03-10T05:05:07.933Z,11.16
2023-03-10T05:06:07.927Z,11.13
2023-03-10T05:07:07.915Z,11.13
2023-03-10T05:08:07.900Z,11.12
2023-03-10T05:09:07.938Z,11.12
2023-03-10T05:10:07.890Z,11.11
2023-03-10T05:11:07.867Z,11.06
2023-03-10T05:12:07.865Z,11.05
2023-03-10T05:13:07.865Z,11.02
2023-03-10T05:14:07.816Z,11.02
2023-03-10T05:15:07.836Z,11.01
2023-03-10T05:16:07.832Z,11.01
2023-03-10T05:17:07.825Z,10.98
2023-03-10T05:18:07.787Z,10.95
2023-03-10T05:19:07.815Z,10.93
2023-03-10T05:20:07.759Z,10.90
2023-03-10T05:21:07.785Z,10.87
2023-03-10T05:22:07.757Z,10.84
2023-03-10T05:23:07.745Z,10.81
2023-03-10T05:24:07.727Z,10.80
2023-03-10T05:25:07.729Z,10.78
2023-03-10T05:26:07.689Z,10.75
2023-03-10T05:27:07.708Z,10.73
2023-03-10T05:28:07.676Z,10.70
2023-03-10T05:29:07.677Z,10.70
2023-03-10T05:30:07.661Z,10.65
2023-03-10T05:31:07.651Z,10.65
2023-03-10T05:32:07.646Z,10.63
2023-03-10T05:33:07.625Z,10.65
2023-03-10T05:34:07.628Z,10.66
2023-03-10T05:35:07.628Z,10.65
2023-03-10T05:36:07.747Z,10.65
2023-03-10T05:37:07.586Z,10.62
2023-03-10T05:38:07.569Z,10.60
2023-03-10T05:39:07.593Z,10.58
2023-03-10T05:40:07.558Z,10.55
2023-03-10T05:41:07.570Z,10.55
2023-03-10T05:42:07.564Z,10.54
2023-03-10T05:43:07.536Z,10.49
2023-03-10T05:44:07.511Z,10.49
2023-03-10T05:45:07.526Z,10.49
2023-03-10T05:46:07.492Z,10.51
2023-03-10T05:47:07.600Z,10.51
2023-03-10T05:48:07.496Z,10.51
2023-03-10T05:49:07.471Z,10.54
2023-03-10T05:50:07.472Z,10.54
2023-03-10T05:51:07.483Z,10.55
2023-03-10T05:52:07.434Z,10.55
2023-03-10T05:53:07.413Z,10.55
2023-03-10T05:54:07.402Z,10.57
2023-03-10T05:55:07.416Z,10.58
2023-03-10T05:56:07.375Z,10.58
2023-03-10T05:57:07.371Z,10.60
2023-03-10T05:58:07.374Z,10.60
2023-03-10T05:59:07.432Z,10.60
2023-03-10T06:00:07.373Z,10.65
2023-03-10T06:01:07.354Z,10.66
2023-03-10T06:02:07.315Z,10.68
2023-03-10T06:03:07.373Z,10.69
2023-03-10T06:04:07.370Z,10.70
2023-03-10T06:05:09.597Z,10.72
2023-03-10T06:06:07.276Z,10.78
2023-03-10T06:07:07.265Z,10.80
2023-03-10T06:08:07.264Z,10.83
2023-03-10T06:09:07.271Z,10.87
2023-03-10T06:10:07.236Z,10.91
2023-03-10T06:11:07.226Z,10.93
2023-03-10T06:12:07.238Z,10.93
2023-03-10T06:13:07.208Z,10.95
2023-03-10T06:14:07.198Z,10.98
2023-03-10T06:15:07.201Z,11.01
2023-03-10T06:16:07.251Z,11.01
2023-03-10T06:17:07.188Z,11.01
2023-03-10T06:18:07.158Z,11.02
2023-03-10T06:19:07.145Z,11.03
2023-03-10T06:20:07.116Z,11.05
2023-03-10T06:21:07.140Z,11.06
2023-03-10T06:22:07.120Z,11.06
2023-03-10T06:23:07.101Z,11.08
2023-03-10T06:24:07.098Z,11.08
2023-03-10T06:25:07.110Z,11.08
2023-03-10T06:26:07.119Z,11.08
2023-03-10T06:27:07.088Z,11.09
2023-03-10T06:28:09.595Z,11.06
2023-03-10T06:29:07.035Z,11.06
2023-03-10T06:30:07.036Z,11.06
2023-03-10T06:31:07.016Z,11.06
2023-03-10T06:32:07.084Z,11.05
2023-03-10T06:33:06.990Z,11.03
2023-03-10T06:34:06.973Z,11.02
2023-03-10T06:35:06.984Z,11.02
2023-03-10T06:36:06.997Z,10.99
2023-03-10T06:37:06.974Z,10.99
2023-03-10T06:38:06.954Z,10.93
2023-03-10T06:39:06.945Z,10.90
2023-03-10T06:40:06.927Z,10.86
2023-03-10T06:41:06.933Z,10.81
2023-03-10T06:42:06.918Z,10.80
2023-03-10T06:43:06.886Z,10.76
2023-03-10T06:44:06.897Z,10.75
2023-03-10T06:45:06.890Z,10.73
2023-03-10T06:46:06.967Z,10.72
2023-03-10T06:47:06.855Z,10.69
2023-03-10T06:48:06.915Z,10.69
2023-03-10T06:49:06.818Z,10.69
2023-03-10T06:50:06.827Z,10.68
2023-03-10T06:51:06.825Z,10.65
2023-03-10T06:52:06.807Z,10.63
2023-03-10T06:53:06.869Z,10.60
2023-03-10T06:54:06.814Z,10.60
2023-03-10T06:55:06.778Z,10.60
2023-03-10T06:56:06.750Z,10.60
2023-03-10T06:57:06.753Z,10.63
2023-03-10T06:58:06.746Z,10.62
2023-03-10T06:59:06.743Z,10.65
2023-03-10T07:00:06.709Z,10.68
2023-03-10T07:01:06.792Z,10.68
2023-03-10T07:02:06.691Z,10.69
2023-03-10T07:03:06.701Z,10.75
2023-03-10T07:04:06.690Z,10.76
2023-03-10T07:05:06.716Z,10.76
2023-03-10T07:06:06.657Z,10.80
2023-03-10T07:07:06.621Z,10.81
2023-03-10T07:08:06.643Z,10.81
2023-03-10T07:09:06.617Z,10.84
2023-03-10T07:10:08.276Z,10.86
2023-03-10T07:11:06.596Z,10.87
2023-03-10T07:12:06.598Z,10.90
2023-03-10T07:13:06.558Z,10.90
2023-03-10T07:14:06.558Z,10.91
2023-03-10T07:15:06.559Z,10.93
2023-03-10T07:16:06.533Z,10.94
2023-03-10T07:17:06.584Z,10.93
2023-03-10T07:18:06.538Z,10.94
2023-03-10T07:19:07.208Z,10.93
2023-03-10T07:20:06.498Z,10.98
2023-03-10T07:21:07.185Z,10.98
2023-03-10T07:22:06.499Z,10.99
2023-03-10T07:23:06.548Z,11.02
2023-03-10T07:24:06.465Z,11.01
2023-03-10T07:25:07.939Z,11.01
2023-03-10T07:26:06.446Z,11.03
2023-03-10T07:27:07.089Z,11.05
2023-03-10T07:28:06.408Z,11.05
2023-03-10T07:29:07.131Z,11.06
2023-03-10T07:30:06.414Z,11.06
2023-03-10T07:31:06.797Z,11.08
2023-03-10T07:32:06.389Z,11.08
2023-03-10T07:33:06.431Z,11.09
2023-03-10T07:34:06.399Z,11.09
2023-03-10T07:35:06.392Z,11.09
2023-03-10T07:36:06.736Z,11.09
2023-03-10T07:37:06.321Z,11.11
2023-03-10T07:38:06.324Z,11.11
2023-03-10T07:39:06.302Z,11.11
2023-03-10T07:40:06.294Z,11.12
2023-03-10T07:41:06.293Z,11.12
2023-03-10T07:42:06.252Z,11.12
2023-03-10T07:43:06.260Z,11.16
2023-03-10T07:44:06.254Z,11.19
2023-03-10T07:45:06.236Z,11.20
2023-03-10T07:46:06.250Z,11.24
2023-03-10T07:47:06.240Z,11.27
2023-03-10T07:48:06.287Z,11.30
2023-03-10T07:49:06.175Z,11.35
2023-03-10T07:50:06.212Z,11.36
2023-03-10T07:51:06.189Z,11.41
2023-03-10T07:52:06.203Z,11.42
2023-03-10T07:53:06.168Z,11.45
2023-03-10T07:54:06.164Z,11.46
2023-03-10T07:55:06.126Z,11.45
2023-03-10T07:56:06.152Z,11.46
2023-03-10T07:57:06.127Z,11.45
2023-03-10T07:58:06.160Z,11.46
2023-03-10T07:59:06.118Z,11.45
2023-03-10T08:00:06.080Z,11.44
2023-03-10T08:01:06.046Z,11.42
2023-03-10T08:02:06.059Z,11.42
2023-03-10T08:03:06.121Z,11.39
2023-03-10T08:04:06.318Z,11.38
2023-03-10T08:05:06.070Z,11.38
2023-03-10T08:06:06.018Z,11.35
2023-03-10T08:07:05.999Z,11.33
2023-03-10T08:08:05.988Z,11.31
2023-03-10T08:09:05.967Z,11.27
2023-03-10T08:10:05.959Z,11.24
2023-03-10T08:11:05.956Z,11.17
2023-03-10T08:12:05.949Z,11.09
2023-03-10T08:13:05.938Z,11.05
2023-03-10T08:14:05.932Z,10.94
2023-03-10T08:15:05.898Z,10.87
2023-03-10T08:16:05.962Z,10.80
2023-03-10T08:17:05.898Z,10.68
2023-03-10T08:18:05.869Z,10.58
2023-03-10T08:19:05.876Z,10.47
2023-03-10T08:20:05.870Z,10.42
2023-03-10T08:21:05.838Z,10.34
2023-03-10T08:22:05.852Z,10.29
2023-03-10T08:23:06.003Z,10.20
2023-03-10T08:24:05.812Z,10.17
2023-03-10T08:25:05.798Z,10.09
2023-03-10T08:26:05.810Z,9.99
2023-03-10T08:27:05.770Z,9.99
2023-03-10T08:28:05.760Z,9.99
2023-03-10T08:29:05.767Z,9.98
2023-03-10T08:30:05.760Z,9.96
2023-03-10T08:31:05.756Z,9.98
2023-03-10T08:32:05.789Z,9.93
2023-03-10T08:33:05.787Z,9.92
2023-03-10T08:34:05.718Z,9.91
2023-03-10T08:35:05.710Z,9.88
2023-03-10T08:36:05.728Z,9.85
2023-03-10T08:37:05.679Z,9.86
2023-03-10T08:38:05.663Z,9.88
2023-03-10T08:39:05.668Z,9.86
2023-03-10T08:40:05.673Z,9.92
2023-03-10T08:41:05.621Z,9.93
2023-03-10T08:42:05.652Z,9.92
2023-03-10T08:43:05.613Z,9.95
2023-03-10T08:44:05.619Z,9.98
2023-03-10T08:45:08.122Z,10.02
2023-03-10T08:46:08.337Z,10.07
2023-03-10T08:47:05.663Z,10.10
2023-03-10T08:48:05.583Z,10.17
2023-03-10T08:49:05.574Z,10.11
2023-03-10T08:50:05.786Z,10.07
2023-03-10T08:51:05.525Z,10.02
2023-03-10T08:52:05.645Z,10.02
2023-03-10T08:53:05.526Z,9.99
2023-03-10T08:54:05.577Z,10.01
2023-03-10T08:55:05.836Z,9.95
2023-03-10T08:56:06.033Z,9.89
2023-03-10T08:57:05.760Z,9.88
2023-03-10T08:58:06.247Z,9.83
2023-03-10T08:59:05.460Z,9.85
2023-03-10T09:00:05.446Z,9.83
2023-03-10T09:01:05.519Z,9.83
2023-03-10T09:02:05.514Z,9.83
2023-03-10T09:03:05.791Z,9.83
2023-03-10T09:04:05.397Z,9.86
2023-03-10T09:05:05.558Z,9.86
2023-03-10T09:06:05.408Z,9.88
2023-03-10T09:07:05.429Z,9.92
2023-03-10T09:08:05.347Z,9.93
2023-03-10T09:09:05.359Z,9.98
2023-03-10T09:10:05.331Z,10.09
2023-03-10T09:11:05.299Z,10.18
2023-03-10T09:12:05.300Z,10.28
2023-03-10T09:13:13.716Z,10.32
2023-03-10T09:14:06.334Z,10.42
2023-03-10T09:15:05.303Z,10.44
2023-03-10T09:16:05.304Z,10.54
2023-03-10T09:17:05.258Z,10.57
2023-03-10T09:18:05.320Z,10.63
2023-03-10T09:19:05.425Z,10.70
2023-03-10T09:20:05.222Z,10.72
2023-03-10T09:21:05.262Z,10.75
2023-03-10T09:22:05.317Z,10.78
2023-03-10T09:23:05.178Z,10.78
2023-03-10T09:24:05.201Z,10.83
2023-03-10T09:25:05.169Z,10.90
2023-03-10T09:26:05.151Z,10.95
2023-03-10T09:27:05.151Z,11.01
2023-03-10T09:28:05.129Z,11.06
2023-03-10T09:29:05.157Z,11.12
2023-03-10T09:30:05.139Z,11.16
2023-03-10T09:31:05.100Z,11.19
2023-03-10T09:32:06.096Z,11.17
2023-03-10T09:33:05.203Z,11.17
2023-03-10T09:34:05.059Z,11.16
2023-03-10T09:35:05.064Z,11.19
2023-03-10T09:36:06.820Z,11.20
2023-03-10T09:37:06.869Z,11.23
2023-03-10T09:38:05.024Z,11.24
2023-03-10T09:39:05.017Z,11.27
2023-03-10T09:40:06.432Z,11.30
2023-03-10T09:41:08.039Z,11.38
2023-03-10T09:42:05.007Z,11.44
2023-03-10T09:43:04.983Z,11.42
2023-03-10T09:44:04.956Z,11.45
2023-03-10T09:45:04.963Z,11.46
2023-03-10T09:46:05.048Z,11.46
2023-03-10T09:47:04.953Z,11.46
2023-03-10T09:48:05.102Z,11.45
2023-03-10T09:49:04.922Z,11.45
2023-03-10T09:50:04.887Z,11.45
2023-03-10T09:51:04.895Z,11.45
2023-03-10T09:52:04.907Z,11.45
2023-03-10T09:53:04.873Z,11.46
2023-03-10T09:54:04.872Z,11.46
2023-03-10T09:55:04.846Z,11.46
2023-03-10T09:56:04.840Z,11.49
2023-03-10T09:57:04.826Z,11.51
2023-03-10T09:58:04.820Z,11.54
2023-03-10T09:59:04.788Z,11.53
2023-03-10T10:00:04.808Z,11.56
2023-03-10T10:01:04.778Z,11.53
2023-03-10T10:02:04.827Z,11.56
2023-03-10T10:03:05.334Z,11.59
2023-03-10T10:04:04.963Z,11.60
2023-03-10T10:05:04.839Z,11.60
2023-03-10T10:06:04.717Z,11.59
2023-03-10T10:07:04.718Z,11.56
2023-03-10T10:08:04.748Z,11.57
2023-03-10T10:09:05.802Z,11.59
2023-03-10T10:10:04.687Z,11.60
2023-03-10T10:11:04.680Z,11.59
2023-03-10T10:12:04.667Z,11.60
2023-03-10T10:13:04.666Z,11.60
2023-03-10T10:14:04.657Z,11.59
2023-03-10T10:15:04.627Z,11.60
2023-03-10T10:16:21.345Z,11.59
2023-03-10T10:17:05.634Z,11.59
2023-03-10T10:18:16.233Z,11.60
2023-03-10T10:19:05.647Z,11.57
2023-03-10T10:20:04.566Z,11.56
2023-03-10T10:21:04.549Z,11.53
2023-03-10T10:22:04.644Z,11.46
2023-03-10T10:23:04.527Z,11.42
2023-03-10T10:24:04.548Z,11.39
2023-03-10T10:25:06.417Z,11.35
2023-03-10T10:26:04.515Z,11.30
2023-03-10T10:27:04.515Z,11.26
2023-03-10T10:28:04.484Z,11.24
2023-03-10T10:29:04.490Z,11.23
2023-03-10T10:30:04.467Z,11.21
2023-03-10T10:31:04.478Z,11.17
2023-03-10T10:32:04.469Z,11.17
2023-03-10T10:33:04.447Z,11.16
2023-03-10T10:34:04.430Z,11.13
2023-03-10T10:35:04.419Z,11.11
2023-03-10T10:36:04.434Z,11.12
2023-03-10T10:37:04.393Z,11.12
2023-03-10T10:38:04.390Z,11.12
2023-03-10T10:39:04.359Z,11.12
2023-03-10T10:40:04.349Z,11.16
2023-03-10T10:41:07.133Z,11.17
2023-03-10T10:42:04.349Z,11.19
2023-03-10T10:43:04.314Z,11.21
2023-03-10T10:44:04.322Z,11.23
2023-03-10T10:45:04.312Z,11.24
2023-03-10T10:46:04.360Z,11.26
2023-03-10T10:47:04.305Z,11.33
2023-03-10T10:48:04.289Z,11.38
2023-03-10T10:49:04.262Z,11.38
2023-03-10T10:50:04.264Z,11.41
2023-03-10T10:51:04.248Z,11.42
2023-03-10T10:52:04.250Z,11.45
2023-03-10T10:53:04.225Z,11.45
2023-03-10T10:54:04.237Z,11.45
2023-03-10T10:55:04.187Z,11.44
2023-03-10T10:56:04.187Z,11.48
2023-03-10T10:57:04.186Z,11.48
2023-03-10T10:58:04.194Z,11.51
2023-03-10T10:59:04.188Z,11.54
2023-03-10T11:00:04.147Z,11.56
2023-03-10T11:01:04.210Z,11.57
2023-03-10T11:02:04.201Z,11.59
2023-03-10T11:03:04.127Z,11.60
2023-03-10T11:04:04.099Z,11.60
2023-03-10T11:05:04.089Z,11.60
2023-03-10T11:06:04.118Z,11.62
2023-03-10T11:07:04.069Z,11.63
2023-03-10T11:08:04.060Z,11.59
2023-03-10T11:09:04.048Z,11.56
2023-03-10T11:10:04.039Z,11.62
2023-03-10T11:11:04.030Z,11.62
2023-03-10T11:12:04.038Z,11.66
2023-03-10T11:13:04.023Z,11.70
2023-03-10T11:14:04.030Z,11.74
2023-03-10T11:15:04.002Z,11.74
2023-03-10T11:16:04.007Z,11.74
2023-03-10T11:17:03.971Z,11.74
2023-03-10T11:18:03.961Z,11.75
2023-03-10T11:19:03.943Z,11.79
2023-03-10T11:20:03.961Z,11.85
2023-03-10T11:21:03.935Z,11.87
2023-03-10T11:22:03.912Z,11.90
2023-03-10T11:23:03.919Z,11.96
2023-03-10T11:24:03.892Z,12.00
2023-03-10T11:25:03.894Z,12.01
2023-03-10T11:26:03.865Z,12.07
2023-03-10T11:27:03.873Z,12.11
2023-03-10T11:28:03.852Z,12.12
2023-03-10T11:29:03.891Z,12.13
2023-03-10T11:30:03.824Z,12.13
2023-03-10T11:31:03.871Z,12.16
2023-03-10T11:32:03.828Z,12.21
2023-03-10T11:33:03.827Z,12.29
2023-03-10T11:34:03.838Z,12.31
2023-03-10T11:35:03.785Z,12.31
2023-03-10T11:36:03.878Z,12.31
2023-03-10T11:37:03.752Z,12.25
2023-03-10T11:38:03.748Z,12.23
2023-03-10T11:39:03.741Z,12.21
2023-03-10T11:40:03.740Z,12.19
2023-03-10T11:41:03.716Z,12.22
2023-03-10T11:42:03.707Z,12.19
2023-03-10T11:43:03.706Z,12.21
2023-03-10T11:44:03.725Z,12.22
2023-03-10T11:45:03.679Z,12.21
2023-03-10T11:46:03.727Z,12.21
2023-03-10T11:47:03.658Z,12.15
2023-03-10T11:48:03.648Z,12.11
2023-03-10T11:49:03.637Z,12.12
2023-03-10T11:50:03.618Z,12.13
2023-03-10T11:51:03.618Z,12.12
2023-03-10T11:52:03.604Z,12.08
2023-03-10T11:53:03.587Z,12.12
2023-03-10T11:54:03.580Z,12.13
2023-03-10T11:55:03.564Z,12.18
2023-03-10T11:56:03.570Z,12.16
2023-03-10T11:57:03.548Z,12.11
2023-03-10T11:58:03.532Z,12.04
2023-03-10T11:59:03.516Z,12.00
2023-03-10T12:00:03.522Z,11.94
2023-03-10T12:01:03.499Z,11.87
2023-03-10T12:02:03.489Z,11.81
2023-03-10T12:03:03.474Z,11.75
2023-03-10T12:04:03.480Z,11.74
2023-03-10T12:05:03.489Z,11.75
2023-03-10T12:06:03.452Z,11.81
2023-03-10T12:07:03.441Z,11.85
2023-03-10T12:08:03.424Z,11.88
2023-03-10T12:09:03.400Z,11.88
2023-03-10T12:10:03.424Z,11.88
2023-03-10T12:11:03.399Z,11.93
2023-03-10T12:12:03.370Z,12.00
2023-03-10T12:13:03.404Z,12.03
2023-03-10T12:14:03.389Z,12.12
2023-03-10T12:15:03.361Z,12.21
2023-03-10T12:16:03.443Z,12.33
2023-03-10T12:17:03.345Z,12.40
2023-03-10T12:18:03.342Z,12.49
2023-03-10T12:19:03.322Z,12.61
2023-03-10T12:20:03.311Z,12.74
2023-03-10T12:21:03.292Z,12.85
2023-03-10T12:22:03.264Z,12.95
2023-03-10T12:23:03.274Z,13.01
2023-03-10T12:24:03.272Z,12.98
2023-03-10T12:25:03.253Z,12.95
2023-03-10T12:26:03.232Z,12.94
2023-03-10T12:27:03.230Z,12.99
2023-03-10T12:28:03.213Z,13.14
2023-03-10T12:29:03.204Z,13.10
2023-03-10T12:30:03.180Z,13.03
2023-03-10T12:31:03.289Z,12.91
2023-03-10T12:32:03.252Z,12.79
2023-03-10T12:33:03.166Z,12.76
2023-03-10T12:34:03.177Z,12.74
2023-03-10T12:35:03.152Z,12.77
2023-03-10T12:36:03.192Z,12.79
2023-03-10T12:37:03.132Z,12.71
2023-03-10T12:38:03.112Z,12.70
2023-03-10T12:39:03.094Z,12.67
2023-03-10T12:40:03.066Z,12.58
2023-03-10T12:41:03.095Z,12.54
2023-03-10T12:42:03.062Z,12.56
2023-03-10T12:43:03.041Z,12.62
2023-03-10T12:44:03.068Z,12.66
2023-03-10T12:45:03.033Z,12.63
2023-03-10T12:46:03.013Z,12.66
2023-03-10T12:47:03.058Z,12.70
2023-03-10T12:48:02.994Z,12.67
2023-03-10T12:49:02.974Z,12.70
2023-03-10T12:50:02.985Z,12.70
2023-03-10T12:51:02.966Z,12.67
2023-03-10T12:52:03.031Z,12.69
2023-03-10T12:53:02.952Z,12.70